createdAt,value
2019-01-23T00:01:12.983Z,21.63
2019-01-23T00:04:00.310Z,21.13
2019-01-23T00:06:40.845Z,21.77
2019-01-23T00:09:28.083Z,21.07
2019-01-23T00:12:08.806Z,21.43
2019-01-23T00:14:56.044Z,21.37
2019-01-23T00:33:33.220Z,21.30
2019-01-23T00:36:20.453Z,21.97
2019-01-23T00:39:07.711Z,22.37
2019-01-23T00:45:11.577Z,20.87
2019-01-23T00:47:58.823Z,21.50
2019-01-23T00:50:39.585Z,22.17
2019-01-23T00:54:03.361Z,21.90
2019-01-23T00:57:10.121Z,21.67
2019-01-23T01:06:12.819Z,22.13
2019-01-23T01:09:00.065Z,22.47
2019-01-23T01:11:40.891Z,21.60
2019-01-23T01:14:29.672Z,22.67
2019-01-23T01:17:09.790Z,21.67
2019-01-23T01:19:57.065Z,21.83
2019-01-23T01:22:37.385Z,22.30
2019-01-23T01:25:24.601Z,21.77
2019-01-23T01:28:05.272Z,21.90
2019-01-23T01:30:52.763Z,23.10
2019-01-23T01:33:34.115Z,21.93
2019-01-23T01:36:21.659Z,21.87
2019-01-23T01:39:09.007Z,22.00
2019-01-23T01:41:49.520Z,23.33
2019-01-23T01:44:36.767Z,22.37
2019-01-23T01:47:16.675Z,21.47
2019-01-23T01:50:45.803Z,20.97
2019-01-23T01:53:26.047Z,22.40
2019-01-23T01:56:06.082Z,22.27
2019-01-23T01:58:46.099Z,21.80
2019-01-23T02:01:33.317Z,22.30
2019-01-23T02:04:13.498Z,22.87
2019-01-23T02:07:00.708Z,22.93
2019-01-23T02:09:45.435Z,21.70
2019-01-23T02:12:30.381Z,21.87
2019-01-23T02:15:11.191Z,21.43
2019-01-23T02:17:58.400Z,22.60
2019-01-23T02:20:39.124Z,22.70
2019-01-23T02:23:26.338Z,21.73
2019-01-23T02:29:00.199Z,21.97
2019-01-23T02:31:47.440Z,22.83
2019-01-23T02:34:27.524Z,21.77
2019-01-23T02:37:14.734Z,23.03
2019-01-23T02:39:55.524Z,22.53
2019-01-23T02:42:42.760Z,22.93
2019-01-23T02:45:31.908Z,22.33
2019-01-23T02:48:11.825Z,22.43
2019-01-23T02:51:17.144Z,20.70
2019-01-23T02:57:28.626Z,22.03
2019-01-23T03:00:10.267Z,21.00
2019-01-23T03:02:57.480Z,22.90
2019-01-23T03:08:49.472Z,21.53
2019-01-23T03:11:36.706Z,21.80
2019-01-23T03:33:04.135Z,22.73
2019-01-23T03:35:51.362Z,22.40
2019-01-23T03:38:31.441Z,23.27
2019-01-23T03:41:18.705Z,24.93
2019-01-23T03:44:05.931Z,24.03
2019-01-23T03:46:53.192Z,24.10
2019-01-23T03:49:33.854Z,24.07
2019-01-23T03:52:21.111Z,23.60
2019-01-23T03:55:01.511Z,23.60
2019-01-23T03:57:48.751Z,24.53
2019-01-23T04:00:28.591Z,24.57
2019-01-23T04:03:15.825Z,26.27
2019-01-23T04:05:55.630Z,24.00
2019-01-23T04:11:29.544Z,24.67
2019-01-23T04:14:16.752Z,23.07
2019-01-23T04:16:57.260Z,25.23
2019-01-23T04:19:44.484Z,25.63
2019-01-23T04:22:24.876Z,25.27
2019-01-23T04:28:04.048Z,24.80
2019-01-23T04:30:51.850Z,26.80
2019-01-23T04:33:39.108Z,24.63
2019-01-23T04:36:19.420Z,25.13
2019-01-23T04:42:15.970Z,34.23
2019-01-23T04:48:31.947Z,26.60
2019-01-23T04:51:38.824Z,26.50
2019-01-23T04:54:26.644Z,26.77
2019-01-23T04:57:06.802Z,28.27
2019-01-23T04:59:47.198Z,26.03
2019-01-23T05:02:34.492Z,27.67
2019-01-23T05:08:35.554Z,27.70
2019-01-23T05:11:15.923Z,25.67
2019-01-23T05:17:05.942Z,26.63
2019-01-23T05:19:46.405Z,26.90
2019-01-23T05:22:33.645Z,27.10
2019-01-23T05:25:15.270Z,26.60
2019-01-23T05:28:39.065Z,27.43
2019-01-23T05:34:58.074Z,26.10
2019-01-23T05:38:04.445Z,26.60
2019-01-23T05:40:45.255Z,26.63
2019-01-23T05:46:45.425Z,25.07
2019-01-23T05:49:26.154Z,27.17
2019-01-23T05:52:13.386Z,27.50
2019-01-23T05:54:53.806Z,26.80
2019-01-23T05:57:33.738Z,26.77
2019-01-23T06:03:09.808Z,26.40
2019-01-23T06:05:57.232Z,28.77
2019-01-23T06:08:44.460Z,26.93
2019-01-23T06:11:27.520Z,25.87
2019-01-23T06:14:14.722Z,27.97
2019-01-23T06:16:55.240Z,26.53
2019-01-23T06:19:42.466Z,27.80
2019-01-23T06:22:22.660Z,28.10
2019-01-23T06:28:17.762Z,27.93
2019-01-23T06:31:05.278Z,27.17
2019-01-23T06:33:52.787Z,28.93
2019-01-23T06:36:33.029Z,28.77
2019-01-23T06:39:20.276Z,28.63
2019-01-23T06:42:01.187Z,29.87
2019-01-23T06:44:48.416Z,28.50
2019-01-23T06:47:30.518Z,29.23
2019-01-23T06:50:19.661Z,30.43
2019-01-23T06:53:02.775Z,32.88
2019-01-23T06:55:50.057Z,31.07
2019-01-23T06:58:34.434Z,30.13
2019-01-23T07:01:21.889Z,28.93
2019-01-23T07:04:02.341Z,30.73
2019-01-23T07:06:49.584Z,27.83
2019-01-23T07:09:29.623Z,28.57
2019-01-23T07:12:17.239Z,30.47
2019-01-23T07:14:57.659Z,28.40
2019-01-23T07:17:45.053Z,31.03
2019-01-23T07:20:26.501Z,29.67
2019-01-23T07:23:13.726Z,31.53
2019-01-23T07:25:54.489Z,31.90
2019-01-23T07:28:41.706Z,32.43
2019-01-23T07:31:21.979Z,34.30
2019-01-23T07:34:09.209Z,34.33
2019-01-23T07:36:49.991Z,35.80
2019-01-23T07:39:37.219Z,35.73
2019-01-23T07:42:18.040Z,35.20
2019-01-23T07:45:05.925Z,35.90
2019-01-23T07:47:46.386Z,35.27
2019-01-23T07:50:33.664Z,36.07
2019-01-23T07:53:13.900Z,36.10
2019-01-23T07:56:01.379Z,38.37
2019-01-23T07:58:41.990Z,36.63
2019-01-23T08:01:29.293Z,35.73
2019-01-23T08:04:10.273Z,34.60
2019-01-23T08:06:58.303Z,37.80
2019-01-23T08:09:38.440Z,36.43
2019-01-23T08:12:25.742Z,36.43
2019-01-23T08:15:18.100Z,36.90
2019-01-23T08:17:59.078Z,36.47
2019-01-23T08:20:46.456Z,35.03
2019-01-23T08:26:44.256Z,35.73
2019-01-23T08:29:31.449Z,37.17
2019-01-23T08:32:11.641Z,37.37
2019-01-23T08:34:58.882Z,36.23
2019-01-23T08:37:38.786Z,36.13
2019-01-23T08:40:26.032Z,36.17
2019-01-23T08:43:06.713Z,35.47
2019-01-23T08:45:53.972Z,37.10
2019-01-23T08:48:34.102Z,37.57
2019-01-23T08:51:21.372Z,35.53
2019-01-23T08:54:02.376Z,36.17
2019-01-23T08:56:49.589Z,35.60
2019-01-23T08:59:29.801Z,37.67
2019-01-23T09:02:17.067Z,35.30
2019-01-23T09:04:57.384Z,34.80
2019-01-23T09:07:44.967Z,35.73
2019-01-23T09:10:25.809Z,34.63
2019-01-23T09:13:13.066Z,35.60
2019-01-23T09:16:00.637Z,36.87
2019-01-23T09:18:41.867Z,35.17
2019-01-23T09:21:29.115Z,33.53
2019-01-23T09:24:09.335Z,35.23
2019-01-23T09:26:56.577Z,32.90
2019-01-23T09:29:36.490Z,33.57
2019-01-23T09:33:02.685Z,34.77
2019-01-23T09:36:05.769Z,33.83
2019-01-23T09:39:31.941Z,32.83
2019-01-23T09:42:58.175Z,35.13
2019-01-23T09:45:58.389Z,34.37
2019-01-23T09:49:12.981Z,33.97
2019-01-23T09:52:12.840Z,34.57
2019-01-23T09:55:00.186Z,33.17
2019-01-23T09:57:47.173Z,32.93
2019-01-23T10:00:28.079Z,32.67
2019-01-23T10:03:22.797Z,34.43
2019-01-23T10:05:57.947Z,33.87
2019-01-23T10:08:45.401Z,33.97
2019-01-23T10:11:25.785Z,34.77
2019-01-23T10:14:13.250Z,32.03
2019-01-23T10:16:53.723Z,33.70
2019-01-23T10:19:41.115Z,32.47
2019-01-23T10:22:21.789Z,32.87
2019-01-23T10:25:09.323Z,32.93
2019-01-23T10:27:49.854Z,32.37
2019-01-23T10:30:37.088Z,31.07
2019-01-23T10:33:17.402Z,32.60
2019-01-23T10:36:04.861Z,33.83
2019-01-23T10:38:52.115Z,33.03
2019-01-23T10:41:32.048Z,31.93
2019-01-23T10:44:19.284Z,32.80
2019-01-23T10:47:00.246Z,34.67
2019-01-23T10:49:47.673Z,32.50
2019-01-23T10:52:27.980Z,33.70
2019-01-23T10:55:15.402Z,32.83
2019-01-23T10:57:56.064Z,32.70
2019-01-23T11:00:36.972Z,33.83
2019-01-23T11:03:24.202Z,31.03
2019-01-23T11:06:04.212Z,32.23
2019-01-23T11:08:51.666Z,31.73
2019-01-23T11:11:31.937Z,33.03
2019-01-23T11:14:19.179Z,33.33
2019-01-23T11:16:59.053Z,31.80
2019-01-23T11:19:46.303Z,33.23
2019-01-23T11:22:26.225Z,33.50
2019-01-23T11:25:13.793Z,33.23
2019-01-23T11:27:58.621Z,32.47
2019-01-23T11:30:46.074Z,32.57
2019-01-23T11:33:24.663Z,32.80
2019-01-23T11:36:11.896Z,33.10
2019-01-23T11:38:52.638Z,32.63
2019-01-23T11:41:40.187Z,31.47
2019-01-23T11:44:20.651Z,34.17
2019-01-23T11:47:08.099Z,30.90
2019-01-23T11:49:48.588Z,31.57
2019-01-23T11:52:36.167Z,31.47
2019-01-23T11:55:16.626Z,29.80
2019-01-23T11:58:05.547Z,29.70
2019-01-23T12:00:46.373Z,30.67
2019-01-23T12:03:33.613Z,30.10
2019-01-23T12:06:13.637Z,30.50
2019-01-23T12:09:00.873Z,32.63
2019-01-23T12:11:41.689Z,35.00
2019-01-23T12:14:28.926Z,34.10
2019-01-23T12:17:08.858Z,35.27
2019-01-23T12:19:56.071Z,34.23
2019-01-23T12:22:36.047Z,34.40
2019-01-23T12:25:23.296Z,33.77
2019-01-23T12:28:04.156Z,34.77
2019-01-23T12:30:52.196Z,33.67
2019-01-23T12:33:32.441Z,32.50
2019-01-23T12:36:19.691Z,32.70
2019-01-23T12:39:00.348Z,34.30
2019-01-23T12:41:47.578Z,33.77
2019-01-23T12:44:27.846Z,36.07
2019-01-23T12:47:34.521Z,33.47
2019-01-23T12:51:07.060Z,33.57
2019-01-23T12:53:49.198Z,36.20
2019-01-23T12:56:37.265Z,35.40
2019-01-23T12:59:17.748Z,34.97
2019-01-23T13:05:15.848Z,34.27
2019-01-23T13:08:15.714Z,34.47
2019-01-23T13:14:32.176Z,35.20
2019-01-23T13:17:19.423Z,36.90
2019-01-23T13:20:00.274Z,37.17
2019-01-23T13:22:47.275Z,35.47
2019-01-23T13:25:27.676Z,36.13
2019-01-23T13:28:14.927Z,37.57
2019-01-23T13:30:55.447Z,37.57
2019-01-23T13:33:43.233Z,37.57
2019-01-23T13:36:23.493Z,37.93
2019-01-23T13:39:15.481Z,38.47
2019-01-23T13:41:55.737Z,37.43
2019-01-23T13:44:43.581Z,39.13
2019-01-23T13:47:23.885Z,41.37
2019-01-23T13:53:40.935Z,37.77
2019-01-23T13:56:28.599Z,40.37
2019-01-23T13:59:09.173Z,41.10
2019-01-23T14:01:56.652Z,42.70
2019-01-23T14:04:39.052Z,40.80
2019-01-23T14:07:26.315Z,40.90
2019-01-23T14:10:08.511Z,40.70
2019-01-23T14:12:55.735Z,41.17
2019-01-23T14:15:36.468Z,40.03
2019-01-23T14:18:23.691Z,40.57
2019-01-23T14:21:04.018Z,41.40
2019-01-23T14:23:51.358Z,39.83
2019-01-23T14:26:32.353Z,40.90
2019-01-23T14:29:19.561Z,41.97
2019-01-23T14:32:03.475Z,41.77
2019-01-23T14:34:48.846Z,40.10
2019-01-23T14:37:28.805Z,42.73
2019-01-23T14:40:16.158Z,40.27
2019-01-23T14:42:57.016Z,42.30
2019-01-23T14:45:44.301Z,42.77
2019-01-23T14:48:24.407Z,41.30
2019-01-23T14:51:11.788Z,43.17
2019-01-23T14:53:52.556Z,43.33
2019-01-23T14:56:39.100Z,42.97
2019-01-23T14:59:19.517Z,41.60
2019-01-23T15:02:10.383Z,44.57
2019-01-23T15:04:48.686Z,45.83
2019-01-23T15:07:35.885Z,42.40
2019-01-23T15:10:25.093Z,43.97
2019-01-23T15:13:05.921Z,43.83
2019-01-23T15:15:53.141Z,45.60
2019-01-23T15:18:33.197Z,47.20
2019-01-23T15:21:20.465Z,49.63
2019-01-23T15:24:00.508Z,49.93
2019-01-23T15:26:47.728Z,50.00
2019-01-23T15:29:27.567Z,52.73
2019-01-23T15:32:17.472Z,51.87
2019-01-23T15:34:57.601Z,52.27
2019-01-23T15:37:44.817Z,52.53
2019-01-23T15:40:25.928Z,53.13
2019-01-23T15:43:13.167Z,52.07
2019-01-23T15:45:53.653Z,52.57
2019-01-23T15:48:41.079Z,52.37
2019-01-23T15:51:21.829Z,55.43
2019-01-23T15:54:09.079Z,52.30
2019-01-23T15:56:50.113Z,53.00
2019-01-23T15:59:30.065Z,54.27
2019-01-23T16:02:24.102Z,52.70
2019-01-23T16:04:59.110Z,52.50
2019-01-23T16:07:46.549Z,55.50
2019-01-23T16:10:28.860Z,53.53
2019-01-23T16:16:20.435Z,50.83
2019-01-23T16:19:07.692Z,52.57
2019-01-23T16:21:48.499Z,51.57
2019-01-23T16:24:35.615Z,50.43
2019-01-23T16:27:16.419Z,52.27
2019-01-23T16:30:45.927Z,50.70
2019-01-23T16:33:26.607Z,46.80
2019-01-23T16:36:14.036Z,51.30
2019-01-23T16:38:54.562Z,49.13
2019-01-23T16:41:41.804Z,48.20
2019-01-23T16:44:48.614Z,48.10
2019-01-23T16:47:35.166Z,46.97
2019-01-23T16:50:16.912Z,49.23
2019-01-23T16:53:04.283Z,47.90
2019-01-23T16:55:54.137Z,45.23
2019-01-23T16:58:34.176Z,45.07
2019-01-23T17:01:14.081Z,42.90
2019-01-23T17:04:01.306Z,43.93
2019-01-23T17:06:41.268Z,44.03
2019-01-23T17:09:28.495Z,41.03
2019-01-23T17:12:09.363Z,42.63
2019-01-23T17:14:56.730Z,41.30
2019-01-23T17:17:37.609Z,39.63
2019-01-23T17:23:48.643Z,37.00
2019-01-23T17:26:35.900Z,37.70
2019-01-23T17:29:22.617Z,37.87
2019-01-23T17:31:50.534Z,36.80
2019-01-23T17:34:18.288Z,39.80
2019-01-23T17:36:46.203Z,39.03
2019-01-23T17:39:13.981Z,36.70
2019-01-23T17:41:41.901Z,37.23
2019-01-23T17:44:10.062Z,36.10
2019-01-23T17:46:38.133Z,36.83
2019-01-23T17:49:05.884Z,36.20
2019-01-23T17:51:33.633Z,33.40
2019-01-23T17:54:01.405Z,32.70
2019-01-23T17:56:29.207Z,32.40
2019-01-23T17:58:57.011Z,32.60
2019-01-23T18:01:24.773Z,31.73
2019-01-23T18:03:52.773Z,33.00
2019-01-23T18:06:20.505Z,29.50
2019-01-23T18:08:48.289Z,30.53
2019-01-23T18:11:16.053Z,29.77
2019-01-23T18:13:43.816Z,29.40
2019-01-23T18:16:12.140Z,29.77
2019-01-23T18:18:39.942Z,28.37
2019-01-23T18:21:07.835Z,29.53
2019-01-23T18:23:35.618Z,29.67
2019-01-23T18:26:03.833Z,29.90
2019-01-23T18:28:31.609Z,28.17
2019-01-23T18:31:43.666Z,28.20
2019-01-23T18:35:33.320Z,25.67
2019-01-23T18:38:35.154Z,26.37
2019-01-23T18:41:48.013Z,26.23
2019-01-23T18:45:26.826Z,25.80
2019-01-23T18:49:10.560Z,25.90
2019-01-23T18:52:08.281Z,23.97
2019-01-23T18:54:36.077Z,25.97
2019-01-23T18:57:09.052Z,25.37
2019-01-23T18:59:36.690Z,27.23
2019-01-23T19:02:04.790Z,27.27
2019-01-23T19:04:32.582Z,26.50
2019-01-23T19:07:00.423Z,27.17
2019-01-23T19:09:28.214Z,25.03
2019-01-23T19:11:56.010Z,25.87
2019-01-23T19:14:24.586Z,25.33
2019-01-23T19:16:52.778Z,25.63
2019-01-23T19:19:20.512Z,26.40
2019-01-23T19:21:54.916Z,27.43
2019-01-23T19:24:17.929Z,26.77
2019-01-23T19:26:45.711Z,26.17
2019-01-23T19:29:13.445Z,27.40
2019-01-23T19:31:41.237Z,24.87
2019-01-23T19:34:09.011Z,26.67
2019-01-23T19:36:36.897Z,25.20
2019-01-23T19:39:07.985Z,26.00
2019-01-23T19:41:35.758Z,25.70
2019-01-23T19:44:05.963Z,24.97
2019-01-23T19:46:33.711Z,25.67
2019-01-23T19:49:01.509Z,25.80
2019-01-23T19:51:29.270Z,25.17
2019-01-23T19:53:57.129Z,26.30
2019-01-23T19:56:24.917Z,24.20
2019-01-23T19:58:52.719Z,25.20
2019-01-23T20:01:20.482Z,23.90
2019-01-23T20:03:48.356Z,24.30
2019-01-23T20:06:16.091Z,24.23
2019-01-23T20:08:43.865Z,24.57
2019-01-23T20:11:11.714Z,24.87
2019-01-23T20:13:39.519Z,23.20
2019-01-23T20:16:07.300Z,24.63
2019-01-23T20:18:35.958Z,23.47
2019-01-23T20:21:03.851Z,23.17
2019-01-23T20:23:31.605Z,23.30
2019-01-23T20:25:59.490Z,24.13
2019-01-23T20:28:27.230Z,24.20
2019-01-23T20:30:55.003Z,23.33
2019-01-23T20:33:27.931Z,23.97
2019-01-23T20:35:52.473Z,24.27
2019-01-23T20:38:20.244Z,24.00
2019-01-23T20:40:47.995Z,21.47
2019-01-23T20:43:15.730Z,22.80
2019-01-23T20:45:43.506Z,23.63
2019-01-23T20:48:11.378Z,22.17
2019-01-23T20:50:39.328Z,23.37
2019-01-23T20:53:07.211Z,22.17
2019-01-23T20:55:34.973Z,23.33
2019-01-23T20:58:03.328Z,22.23
2019-01-23T21:00:32.265Z,22.53
2019-01-23T21:03:00.246Z,22.07
2019-01-23T21:05:28.071Z,21.90
2019-01-23T21:07:55.832Z,22.63
2019-01-23T21:10:24.083Z,22.73
2019-01-23T21:12:51.886Z,21.60
2019-01-23T21:15:23.006Z,21.63
2019-01-23T21:17:50.780Z,21.63
2019-01-23T21:20:18.594Z,21.13
2019-01-23T21:22:46.381Z,22.50
2019-01-23T21:25:14.366Z,21.63
2019-01-23T21:27:42.516Z,20.23
2019-01-23T21:30:18.361Z,22.20
2019-01-23T21:32:46.200Z,21.13
2019-01-23T21:35:14.709Z,22.17
2019-01-23T21:37:42.568Z,20.77
2019-01-23T21:40:24.083Z,21.57
2019-01-23T21:42:51.932Z,21.33
2019-01-23T21:45:19.676Z,21.47
2019-01-23T21:47:48.685Z,21.83
2019-01-23T21:50:18.259Z,20.60
2019-01-23T21:52:45.987Z,21.57
2019-01-23T21:55:16.322Z,22.93
2019-01-23T21:57:44.455Z,21.80
2019-01-23T22:00:26.068Z,21.33
2019-01-23T22:02:55.283Z,20.70
2019-01-23T22:05:23.056Z,20.57
2019-01-23T22:07:50.865Z,23.07
2019-01-23T22:10:18.629Z,20.97
2019-01-23T22:12:46.414Z,21.47
2019-01-23T22:15:16.436Z,21.23
2019-01-23T22:17:44.202Z,19.77
2019-01-23T22:20:14.853Z,22.27
2019-01-23T22:22:42.654Z,21.53
2019-01-23T22:25:12.543Z,23.13
2019-01-23T22:27:40.316Z,21.00
2019-01-23T22:30:16.057Z,21.43
2019-01-23T22:32:43.828Z,21.53
2019-01-23T22:35:12.029Z,22.70
2019-01-23T22:37:39.792Z,22.97
2019-01-23T22:40:08.942Z,22.07
2019-01-23T22:42:36.756Z,21.97
2019-01-23T22:45:08.088Z,22.53
2019-01-23T22:47:35.833Z,21.27
2019-01-23T22:50:05.651Z,22.80
2019-01-23T22:52:33.411Z,21.07
2019-01-23T22:55:01.149Z,22.50
2019-01-23T22:57:28.906Z,23.87
2019-01-23T22:59:56.679Z,23.83
2019-01-23T23:02:24.456Z,23.23
2019-01-23T23:04:52.208Z,21.67
2019-01-23T23:07:19.980Z,23.17
2019-01-23T23:09:47.720Z,22.50
2019-01-23T23:12:15.519Z,22.97
2019-01-23T23:14:43.406Z,24.90
2019-01-23T23:17:11.170Z,24.17
2019-01-23T23:19:38.924Z,23.17
2019-01-23T23:22:06.670Z,24.37
2019-01-23T23:24:34.423Z,22.67
2019-01-23T23:27:02.170Z,24.50
2019-01-23T23:29:29.921Z,23.00
2019-01-23T23:31:57.682Z,23.97
2019-01-23T23:34:25.471Z,24.20
2019-01-23T23:36:53.213Z,24.23
2019-01-23T23:39:21.037Z,25.17
2019-01-23T23:41:48.794Z,23.23
2019-01-23T23:44:16.521Z,24.77
2019-01-23T23:46:44.269Z,24.87
2019-01-23T23:49:12.051Z,25.83
2019-01-23T23:51:39.798Z,23.57
2019-01-23T23:54:07.539Z,25.47
2019-01-23T23:56:35.267Z,24.30
2019-01-23T23:59:03.045Z,25.27
